Glen Arbor, MI (49636)

5:40 PM EDT on August 27, 2015 (GMT -0400)
APRSWXNET | | Change Station
CLOSE
Current Station
Personal Weather Station
Location: Glen Arbor, MI
Elevation: 590 ft
Nearby Weather Stations

Elev 590 ft 44.89 °N, 86.01 °W | Updated 18 minutes ago

Clear
Clear
68 °F
Feels Like 68 °F
N
0
Wind Variable Wind from WNW
Gusts 4.0 mph

Today
High -- | Low -- °F
--% Chance of Precip.
Yesterday
High -- | Low -- °F
Precip. -- in
6:59 AM 8:30 PM
Waxing Gibbous, 95% visible
Pressure 30.13 in
Visibility 10.0 miles
Clouds Clear
Dew Point 60 °F
Humidity 75%
Rainfall in
Snow Depth Not available.
UV 3 out of 12
Pollen 9.50 out of 12
Air Quality Not available.
Flu Activity Not available.
METAR KFKS 272133Z AUTO 24007G15KT 220V280 10SM CLR 20/15 A3013 RMK AO2 T01960150
Pressure 30.13 in
Visibility 10.0 miles
Clouds Clear
Dew Point 60 °F
Humidity 75%
Rainfall in
Snow Depth Not available.
UV 3 out of 12
Pollen 9.50 out of 12
Air Quality Not available.
Flu Activity Not available.
METAR KFKS 272133Z AUTO 24007G15KT 220V280 10SM CLR 20/15 A3013 RMK AO2 T01960150
Nowcast | as of 5:00 PM EDT on August 27, 2015

At 6 PM...mostly clear. Temperature 67. West winds 8 mph. At 8 PM...mostly clear. Temperature 65. Southwest winds 5 mph. At 10 PM...mostly clear. Temperature 62. Southwest winds 5 mph. At 12 am...mostly clear. Temperature 61. South winds 7 mph.

×

10-Day Weather Forecast

×

Almanac

Astronomy

Aug. 27, 2015 Rise Set
Actual Time
Civil Twilight
Nautical Twilight
Astronomical Twilight
Moon
Length of Visible Light
Length of Day
Tomorrow will be .
, % of the Moon is Illuminated

Today's Extremes

State Highs State Lows

Community

WunderPhotos

Upload Photos

1,850,236 photos uploaded!

WunderBlogs® & News

Nearby

Air Quality

  Air Quality AQ Index Pollutant
Not available.

Snow Depth

Station Depth Elevation

Earthquake Activity

City Distance Mag. Time & Date
Minimum magnitude displayed is 2.5.

Coastal Water Temperatures

Place Temperature

Stations

Nearby Weather Stations

Station Location Temp. Windchill Dew Point Humidity Wind Precip. Elev Updated Type